createdAt,value
2023-09-18T00:01:56.265Z,96739.84
2023-09-18T00:04:23.976Z,96741.72
2023-09-18T00:06:52.945Z,96723.47
2023-09-18T00:09:20.599Z,96739.00
2023-09-18T00:11:48.573Z,96735.28
2023-09-18T00:14:16.185Z,96725.94
2023-09-18T00:16:57.647Z,96723.25
2023-09-18T00:19:26.178Z,96715.78
2023-09-18T00:21:55.563Z,96707.31
2023-09-18T00:24:23.512Z,96707.72
2023-09-18T00:26:53.917Z,96714.56
2023-09-18T00:29:21.748Z,96706.28
2023-09-18T00:31:49.483Z,96710.84
2023-09-18T00:34:17.161Z,96699.22
2023-09-18T00:36:45.360Z,96689.25
2023-09-18T00:39:15.372Z,96699.44
2023-09-18T00:41:43.741Z,96688.03
2023-09-18T00:44:11.419Z,96686.81
2023-09-18T00:46:39.102Z,96681.19
2023-09-18T00:49:06.811Z,96679.97
2023-09-18T00:51:34.494Z,96678.50
2023-09-18T00:54:02.385Z,96678.91
2023-09-18T00:56:31.361Z,96676.84
2023-09-18T00:58:59.100Z,96670.81
2023-09-18T01:01:27.135Z,96665.63
2023-09-18T01:03:55.147Z,96672.66
2023-09-18T01:06:22.889Z,96676.03
2023-09-18T01:08:54.479Z,96662.75
2023-09-18T01:11:28.602Z,96667.72
2023-09-18T01:14:04.817Z,96670.19
2023-09-18T01:16:37.037Z,96680.97
2023-09-18T01:19:05.053Z,96692.56
2023-09-18T01:21:32.751Z,96685.97
2023-09-18T01:24:01.708Z,96677.06
2023-09-18T01:26:29.439Z,96680.38
2023-09-18T01:28:57.262Z,96673.72
2023-09-18T01:31:27.495Z,96678.50
2023-09-18T01:33:55.908Z,96653.00
2023-09-18T01:36:23.897Z,96669.97
2023-09-18T01:38:52.347Z,96666.66
2023-09-18T01:41:21.832Z,96659.66
2023-09-18T01:43:49.507Z,96661.94
2023-09-18T01:46:17.486Z,96667.31
2023-09-18T01:48:48.366Z,96668.31
2023-09-18T01:51:16.405Z,96672.25
2023-09-18T01:53:45.040Z,96691.34
2023-09-18T01:56:12.735Z,96738.38
2023-09-18T01:58:41.730Z,96739.44
2023-09-18T02:01:10.185Z,96721.63
2023-09-18T02:04:09.032Z,96731.56
2023-09-18T02:06:30.413Z,96731.38
2023-09-18T02:08:58.832Z,96732.59
2023-09-18T02:11:26.767Z,96735.09
2023-09-18T02:13:55.783Z,96723.50
2023-09-18T02:16:25.237Z,96712.06
2023-09-18T02:18:53.177Z,96699.25
2023-09-18T02:21:22.413Z,96698.19
2023-09-18T02:23:51.458Z,96666.13
2023-09-18T02:26:19.209Z,96661.97
2023-09-18T02:28:46.894Z,96661.78
2023-09-18T02:31:16.170Z,96649.50
2023-09-18T02:33:44.914Z,96618.03
2023-09-18T02:36:12.563Z,96631.47
2023-09-18T02:38:40.247Z,96629.22
2023-09-18T02:41:07.948Z,96624.06
2023-09-18T02:43:35.581Z,96645.38
2023-09-18T02:46:03.318Z,96652.22
2023-09-18T02:48:32.346Z,96653.06
2023-09-18T02:51:03.364Z,96658.47
2023-09-18T02:53:31.438Z,96640.63
2023-09-18T02:56:00.850Z,96640.00
2023-09-18T02:58:30.361Z,96639.63
2023-09-18T03:00:59.338Z,96628.41
2023-09-18T03:03:27.144Z,96634.22
2023-09-18T03:06:04.065Z,96631.72
2023-09-18T03:08:31.888Z,96638.13
2023-09-18T03:10:59.649Z,96639.00
2023-09-18T03:13:28.670Z,96641.28
2023-09-18T03:15:57.237Z,96627.81
2023-09-18T03:18:24.968Z,96625.53
2023-09-18T03:20:52.657Z,96610.19
2023-09-18T03:23:21.682Z,96607.06
2023-09-18T03:25:52.096Z,96604.59
2023-09-18T03:28:20.171Z,96603.13
2023-09-18T03:30:47.795Z,96600.91
2023-09-18T03:33:15.419Z,96613.06
2023-09-18T03:35:50.223Z,96622.44
2023-09-18T03:38:18.176Z,96619.31
2023-09-18T03:40:47.153Z,96617.25
2023-09-18T03:43:14.829Z,96612.88
2023-09-18T03:45:43.294Z,96609.75
2023-09-18T03:48:11.432Z,96606.66
2023-09-18T03:50:39.800Z,96613.91
2023-09-18T03:53:08.090Z,96624.66
2023-09-18T03:55:35.876Z,96635.44
2023-09-18T03:58:06.176Z,96638.31
2023-09-18T04:00:33.810Z,96628.00
2023-09-18T04:03:01.594Z,96627.75
2023-09-18T04:05:29.546Z,96619.09
2023-09-18T04:07:57.252Z,96610.19
2023-09-18T04:10:25.405Z,96605.44
2023-09-18T04:12:53.614Z,96612.03
2023-09-18T04:15:23.742Z,96616.78
2023-09-18T04:17:51.444Z,96623.28
2023-09-18T04:20:20.008Z,96615.38
2023-09-18T04:22:50.836Z,96606.25
2023-09-18T04:25:20.462Z,96606.47
2023-09-18T04:27:51.106Z,96602.75
2023-09-18T04:30:20.775Z,96597.34
2023-09-18T04:32:53.096Z,96595.25
2023-09-18T04:35:20.965Z,96592.81
2023-09-18T04:37:49.313Z,96576.69
2023-09-18T04:40:17.159Z,96564.06
2023-09-18T04:42:44.840Z,96544.78
2023-09-18T04:45:12.560Z,96544.59
2023-09-18T04:47:40.323Z,96535.25
2023-09-18T04:50:13.587Z,96523.28
2023-09-18T04:52:43.507Z,96543.13
2023-09-18T04:55:12.190Z,96541.91
2023-09-18T04:57:40.149Z,96540.44
2023-09-18T05:00:16.957Z,96553.50
2023-09-18T05:02:45.970Z,96562.59
2023-09-18T05:05:15.719Z,96571.88
2023-09-18T05:07:44.296Z,96582.44
2023-09-18T05:10:12.136Z,96588.66
2023-09-18T05:12:41.497Z,96597.13
2023-09-18T05:15:10.736Z,96603.13
2023-09-18T05:17:43.774Z,96602.31
2023-09-18T05:20:15.097Z,96609.75
2023-09-18T05:22:44.392Z,96620.31
2023-09-18T05:25:12.263Z,96626.72
2023-09-18T05:27:45.136Z,96625.13
2023-09-18T05:30:16.186Z,96623.03
2023-09-18T05:32:45.357Z,96631.53
2023-09-18T05:35:14.004Z,96626.78
2023-09-18T05:37:44.837Z,96608.31
2023-09-18T05:40:13.538Z,96593.22
2023-09-18T05:42:44.098Z,96612.47
2023-09-18T05:45:12.395Z,96600.88
2023-09-18T05:47:40.332Z,96603.34
2023-09-18T05:50:09.782Z,96609.78
2023-09-18T05:52:37.632Z,96599.22
2023-09-18T05:55:07.972Z,96610.56
2023-09-18T05:57:36.107Z,96626.72
2023-09-18T06:00:04.009Z,96620.75
2023-09-18T06:02:31.711Z,96628.41
2023-09-18T06:05:01.214Z,96624.66
2023-09-18T06:07:29.203Z,96623.66
2023-09-18T06:09:56.925Z,96616.41
2023-09-18T06:12:26.978Z,96609.34
2023-09-18T06:14:54.666Z,96591.97
2023-09-18T06:17:22.437Z,96608.31
2023-09-18T06:19:50.193Z,96629.66
2023-09-18T06:22:17.863Z,96636.47
2023-09-18T06:24:45.558Z,96634.81
2023-09-18T06:27:13.283Z,96623.22
2023-09-18T06:29:44.057Z,96619.94
2023-09-18T06:32:11.702Z,96629.66
2023-09-18T06:34:39.432Z,96627.19
2023-09-18T06:37:08.705Z,96642.31
2023-09-18T06:39:37.262Z,96643.31
2023-09-18T06:42:05.274Z,96643.72
2023-09-18T06:44:32.995Z,96643.72
2023-09-18T06:47:02.028Z,96666.09
2023-09-18T06:49:29.676Z,96676.88
2023-09-18T06:51:57.370Z,96658.63
2023-09-18T06:54:25.005Z,96657.84
2023-09-18T06:56:52.756Z,96669.84
2023-09-18T06:59:20.528Z,96674.41
2023-09-18T07:01:48.279Z,96680.63
2023-09-18T07:04:17.388Z,96677.72
2023-09-18T07:06:45.107Z,96669.41
2023-09-18T07:09:13.546Z,96666.50
2023-09-18T07:11:41.379Z,96668.16
2023-09-18T07:14:09.268Z,96657.81
2023-09-18T07:16:37.010Z,96677.28
2023-09-18T07:19:05.676Z,96682.84
2023-09-18T07:21:36.377Z,96676.63
2023-09-18T07:24:04.118Z,96667.34
2023-09-18T07:26:32.461Z,96665.69
2023-09-18T07:29:02.478Z,96675.19
2023-09-18T07:31:30.562Z,96678.50
2023-09-18T07:33:58.494Z,96684.31
2023-09-18T07:36:26.187Z,96683.25
2023-09-18T07:38:55.528Z,96690.09
2023-09-18T07:41:23.641Z,96668.56
2023-09-18T07:43:51.475Z,96681.81
2023-09-18T07:46:19.228Z,96666.28
2023-09-18T07:48:47.164Z,96667.31
2023-09-18T07:51:17.127Z,96668.97
2023-09-18T07:53:45.429Z,96681.00
2023-09-18T07:56:14.606Z,96676.00
2023-09-18T07:58:42.267Z,96696.31
2023-09-18T08:01:11.201Z,96697.13
2023-09-18T08:03:39.443Z,96702.09
2023-09-18T08:06:07.210Z,96702.09
2023-09-18T08:08:34.866Z,96710.16
2023-09-18T08:11:09.964Z,96715.94
2023-09-18T08:13:39.396Z,96710.78
2023-09-18T08:16:08.908Z,96707.88
2023-09-18T08:18:36.970Z,96703.53
2023-09-18T08:21:05.787Z,96700.41
2023-09-18T08:23:33.746Z,96700.00
2023-09-18T08:26:02.175Z,96704.75
2023-09-18T08:28:29.840Z,96702.06
2023-09-18T08:30:59.781Z,96723.44
2023-09-18T08:33:27.616Z,96711.63
2023-09-18T08:35:55.577Z,96709.94
2023-09-18T08:38:23.222Z,96712.66
2023-09-18T08:40:51.613Z,96711.63
2023-09-18T08:43:20.092Z,96706.03
2023-09-18T08:45:52.530Z,96701.25
2023-09-18T08:48:22.455Z,96702.50
2023-09-18T08:50:50.722Z,96708.91
2023-09-18T08:53:18.518Z,96709.13
2023-09-18T08:55:46.246Z,96711.00
